createdAt,value
2016-12-30T00:00:46.779Z,22.94
2016-12-30T00:01:46.719Z,22.85
2016-12-30T00:02:46.645Z,22.75
2016-12-30T00:03:46.580Z,22.85
2016-12-30T00:04:46.517Z,22.94
2016-12-30T00:05:46.454Z,22.85
2016-12-30T00:06:46.390Z,22.85
2016-12-30T00:07:46.328Z,22.85
2016-12-30T00:08:46.276Z,22.94
2016-12-30T00:09:46.203Z,22.85
2016-12-30T00:10:46.142Z,22.85
2016-12-30T00:11:46.093Z,22.85
2016-12-30T00:12:46.034Z,22.94
2016-12-30T00:13:45.955Z,22.94
2016-12-30T00:14:45.889Z,22.85
2016-12-30T00:15:45.828Z,22.94
2016-12-30T00:16:45.774Z,22.94
2016-12-30T00:17:45.701Z,23.04
2016-12-30T00:18:45.638Z,22.94
2016-12-30T00:19:45.576Z,23.04
2016-12-30T00:20:45.527Z,22.85
2016-12-30T00:21:45.452Z,23.04
2016-12-30T00:22:45.391Z,22.94
2016-12-30T00:23:45.323Z,23.04
2016-12-30T00:24:45.264Z,23.04
2016-12-30T00:25:45.196Z,22.66
2016-12-30T00:26:45.146Z,22.94
2016-12-30T00:27:45.075Z,23.04
2016-12-30T00:28:45.017Z,23.04
2016-12-30T00:29:44.948Z,22.94
2016-12-30T00:30:44.887Z,22.94
2016-12-30T00:31:44.828Z,23.04
2016-12-30T00:32:44.760Z,23.04
2016-12-30T00:33:44.697Z,23.04
2016-12-30T00:34:44.639Z,23.04
2016-12-30T00:35:44.585Z,23.04
2016-12-30T00:36:44.537Z,22.85
2016-12-30T00:37:45.048Z,22.94
2016-12-30T00:38:44.384Z,22.94
2016-12-30T00:39:44.320Z,23.04
2016-12-30T00:40:44.264Z,23.04
2016-12-30T00:41:44.196Z,23.04
2016-12-30T00:42:44.139Z,23.04
2016-12-30T00:43:44.473Z,23.14
2016-12-30T00:44:44.399Z,22.94
2016-12-30T00:45:43.943Z,22.94
2016-12-30T00:46:44.275Z,23.14
2016-12-30T00:47:43.817Z,23.04
2016-12-30T00:48:43.759Z,22.94
2016-12-30T00:49:43.692Z,22.94
2016-12-30T00:50:43.648Z,22.94
2016-12-30T00:51:43.570Z,23.04
2016-12-30T00:52:43.503Z,23.04
2016-12-30T00:53:43.839Z,23.04
2016-12-30T00:54:43.377Z,22.94
2016-12-30T00:55:43.358Z,23.04
2016-12-30T00:56:43.264Z,23.04
2016-12-30T00:57:43.191Z,23.04
2016-12-30T00:58:43.126Z,22.85
2016-12-30T00:59:43.084Z,23.04
2016-12-30T01:01:15.736Z,23.04
2016-12-30T01:02:12.304Z,23.04
2016-12-30T01:03:12.651Z,23.04
2016-12-30T01:04:12.165Z,23.04
2016-12-30T01:05:12.110Z,23.04
2016-12-30T01:06:12.041Z,23.04
2016-12-30T01:07:11.993Z,23.04
2016-12-30T01:08:12.116Z,23.04
2016-12-30T01:09:11.850Z,23.04
2016-12-30T01:10:11.787Z,23.04
2016-12-30T01:11:11.728Z,22.94
2016-12-30T01:12:11.660Z,23.04
2016-12-30T01:13:11.609Z,23.04
2016-12-30T01:14:11.535Z,22.94
2016-12-30T01:15:11.870Z,23.04
2016-12-30T01:16:11.423Z,23.04
2016-12-30T01:17:11.347Z,23.04
2016-12-30T01:18:11.428Z,23.04
2016-12-30T01:19:11.233Z,23.04
2016-12-30T01:20:11.180Z,23.04
2016-12-30T01:21:11.099Z,23.04
2016-12-30T01:22:11.047Z,22.94
2016-12-30T01:23:10.972Z,23.04
2016-12-30T01:24:10.925Z,22.94
2016-12-30T01:25:11.240Z,22.94
2016-12-30T01:26:10.790Z,23.04
2016-12-30T01:27:10.722Z,23.04
2016-12-30T01:28:10.670Z,22.85
2016-12-30T01:29:10.594Z,22.85
2016-12-30T01:30:10.530Z,23.04
2016-12-30T01:31:10.489Z,22.85
2016-12-30T01:32:10.407Z,22.85
2016-12-30T01:33:10.634Z,22.94
2016-12-30T01:34:10.280Z,22.94
2016-12-30T01:35:10.218Z,22.85
2016-12-30T01:36:10.172Z,22.85
2016-12-30T01:37:10.102Z,22.94
2016-12-30T01:38:10.026Z,22.94
2016-12-30T01:39:09.964Z,22.94
2016-12-30T01:40:09.903Z,22.94
2016-12-30T01:41:09.848Z,22.94
2016-12-30T01:42:10.095Z,22.94
2016-12-30T01:43:09.715Z,22.85
2016-12-30T01:44:09.649Z,22.85
2016-12-30T01:45:09.589Z,22.94
2016-12-30T01:46:09.540Z,22.94
2016-12-30T01:47:09.505Z,22.94
2016-12-30T01:48:09.398Z,22.94
2016-12-30T01:49:09.337Z,22.85
2016-12-30T01:50:09.274Z,22.94
2016-12-30T01:51:09.412Z,22.85
2016-12-30T01:52:09.149Z,22.85
2016-12-30T01:53:09.085Z,22.85
2016-12-30T01:54:09.026Z,22.94
2016-12-30T01:55:08.971Z,22.85
2016-12-30T01:56:09.305Z,22.75
2016-12-30T01:57:08.836Z,22.85
2016-12-30T01:58:08.974Z,22.85
2016-12-30T01:59:08.708Z,22.85
2016-12-30T02:00:08.649Z,22.75
2016-12-30T02:01:08.583Z,23.33
2016-12-30T02:02:08.517Z,22.85
2016-12-30T02:03:08.458Z,22.85
2016-12-30T02:04:08.426Z,22.85
2016-12-30T02:05:08.342Z,22.85
2016-12-30T02:06:08.266Z,22.85
2016-12-30T02:07:08.205Z,22.66
2016-12-30T02:08:08.267Z,23.72
2016-12-30T02:09:08.081Z,22.94
2016-12-30T02:10:08.038Z,23.43
2016-12-30T02:11:07.953Z,22.85
2016-12-30T02:12:07.891Z,22.85
2016-12-30T02:13:07.829Z,22.85
2016-12-30T02:14:07.763Z,23.43
2016-12-30T02:15:07.846Z,23.52
2016-12-30T02:16:07.653Z,22.75
2016-12-30T02:17:07.575Z,23.52
2016-12-30T02:18:07.516Z,23.43
2016-12-30T02:19:07.452Z,23.52
2016-12-30T02:20:07.385Z,23.43
2016-12-30T02:21:07.331Z,23.52
2016-12-30T02:22:07.261Z,22.85
2016-12-30T02:23:07.226Z,22.75
2016-12-30T02:24:07.136Z,23.62
2016-12-30T02:25:07.119Z,22.75
2016-12-30T02:26:07.013Z,22.85
2016-12-30T02:27:06.947Z,22.75
2016-12-30T02:28:06.883Z,22.75
2016-12-30T02:29:06.821Z,22.85
2016-12-30T02:30:06.762Z,22.75
2016-12-30T02:31:06.695Z,23.52
2016-12-30T02:32:06.632Z,22.85
2016-12-30T02:33:06.570Z,23.33
2016-12-30T02:34:06.509Z,22.85
2016-12-30T02:35:06.446Z,23.52
2016-12-30T02:36:06.380Z,23.52
2016-12-30T02:37:06.520Z,23.52
2016-12-30T02:38:06.254Z,23.33
2016-12-30T02:39:06.192Z,23.52
2016-12-30T02:40:06.136Z,22.85
2016-12-30T02:41:06.125Z,22.75
2016-12-30T02:42:06.014Z,22.75
2016-12-30T02:43:05.940Z,23.43
2016-12-30T02:44:05.876Z,23.43
2016-12-30T02:45:05.871Z,23.33
2016-12-30T02:46:05.752Z,22.75
2016-12-30T02:47:05.691Z,23.33
2016-12-30T02:48:05.826Z,23.33
2016-12-30T02:49:05.565Z,22.75
2016-12-30T02:50:05.521Z,23.33
2016-12-30T02:51:05.438Z,22.75
2016-12-30T02:52:05.378Z,23.52
2016-12-30T02:53:05.314Z,22.75
2016-12-30T02:54:05.387Z,23.33
2016-12-30T02:55:05.191Z,23.24
2016-12-30T02:56:05.124Z,23.33
2016-12-30T02:57:05.111Z,23.33
2016-12-30T02:58:05.134Z,22.75
2016-12-30T02:59:04.935Z,23.33
2016-12-30T03:00:04.876Z,23.24
2016-12-30T03:01:04.808Z,23.24
2016-12-30T03:02:04.748Z,23.14
2016-12-30T03:03:04.710Z,23.33
2016-12-30T03:04:04.620Z,23.33
2016-12-30T03:05:04.693Z,23.33
2016-12-30T03:06:04.495Z,23.33
2016-12-30T03:07:04.432Z,23.33
2016-12-30T03:08:04.375Z,23.33
2016-12-30T03:09:04.305Z,23.24
2016-12-30T03:10:04.261Z,23.24
2016-12-30T03:11:04.188Z,23.14
2016-12-30T03:12:04.508Z,23.14
2016-12-30T03:13:04.066Z,23.24
2016-12-30T03:14:03.994Z,23.24
2016-12-30T03:15:04.319Z,23.24
2016-12-30T03:16:03.874Z,23.24
2016-12-30T03:17:03.803Z,23.33
2016-12-30T03:18:03.802Z,23.24
2016-12-30T03:19:04.076Z,23.24
2016-12-30T03:20:04.332Z,23.24
2016-12-30T03:21:03.560Z,23.24
2016-12-30T03:22:03.493Z,22.75
2016-12-30T03:23:03.967Z,22.75
2016-12-30T03:24:03.364Z,23.14
2016-12-30T03:25:03.301Z,23.14
2016-12-30T03:26:03.236Z,23.24
2016-12-30T03:27:03.178Z,23.14
2016-12-30T03:28:03.114Z,23.14
2016-12-30T03:29:03.054Z,22.85
2016-12-30T03:30:03.003Z,23.24
2016-12-30T03:31:02.974Z,23.24
2016-12-30T03:32:02.859Z,23.14
2016-12-30T03:33:02.799Z,23.14
2016-12-30T03:34:02.737Z,23.14
2016-12-30T03:35:02.673Z,23.24
2016-12-30T03:36:02.609Z,23.24
2016-12-30T03:37:02.547Z,23.24
2016-12-30T03:38:02.682Z,23.14
2016-12-30T03:39:02.422Z,23.14
2016-12-30T03:40:02.356Z,23.24
2016-12-30T03:41:02.295Z,23.24
2016-12-30T03:42:02.230Z,23.24
2016-12-30T03:43:02.174Z,23.24
2016-12-30T03:44:02.106Z,23.24
2016-12-30T03:45:02.077Z,23.24
2016-12-30T03:46:01.979Z,23.14
2016-12-30T03:47:01.944Z,23.24
2016-12-30T03:48:02.379Z,23.14
2016-12-30T03:49:01.876Z,22.85
2016-12-30T03:50:01.726Z,23.24
2016-12-30T03:51:01.667Z,23.14
2016-12-30T03:52:01.613Z,23.24
2016-12-30T03:53:01.539Z,23.24
2016-12-30T03:54:01.476Z,23.24
2016-12-30T03:55:01.556Z,23.04
2016-12-30T03:56:01.367Z,23.24
2016-12-30T03:57:01.288Z,22.94
2016-12-30T03:58:01.225Z,23.24
2016-12-30T03:59:01.163Z,23.24
2016-12-30T04:00:01.109Z,23.24
2016-12-30T04:01:01.036Z,23.04
2016-12-30T04:02:00.986Z,23.24
2016-12-30T04:03:00.913Z,23.24
2016-12-30T04:04:01.245Z,23.24
2016-12-30T04:05:00.796Z,22.94
2016-12-30T04:06:00.724Z,23.04
2016-12-30T04:07:00.664Z,22.94
2016-12-30T04:08:00.598Z,23.24
2016-12-30T04:09:00.535Z,23.04
2016-12-30T04:10:00.482Z,23.14
2016-12-30T04:11:00.409Z,23.14
2016-12-30T04:12:00.630Z,23.24
2016-12-30T04:13:00.283Z,23.04
2016-12-30T04:14:00.667Z,23.04
2016-12-30T04:15:00.158Z,22.94
2016-12-30T04:16:00.093Z,22.94
2016-12-30T04:17:00.034Z,23.24
2016-12-30T04:18:00.172Z,23.04
2016-12-30T04:18:59.907Z,23.04
2016-12-30T04:19:59.848Z,22.94
2016-12-30T04:20:59.857Z,23.14
2016-12-30T04:21:59.721Z,22.94
2016-12-30T04:22:59.659Z,23.14
2016-12-30T04:23:59.613Z,23.04
2016-12-30T04:24:59.621Z,23.24
2016-12-30T04:25:59.487Z,23.04
2016-12-30T04:26:59.406Z,23.04
2016-12-30T04:27:59.403Z,22.94
2016-12-30T04:28:59.279Z,22.94
2016-12-30T04:29:59.226Z,23.04
2016-12-30T04:30:59.161Z,23.04
2016-12-30T04:31:59.109Z,22.94
2016-12-30T04:33:00.237Z,23.14
2016-12-30T04:33:58.963Z,22.94
2016-12-30T04:34:59.289Z,23.04
2016-12-30T04:35:58.837Z,23.33
2016-12-30T04:36:58.775Z,23.14
2016-12-30T04:37:58.898Z,23.24
2016-12-30T04:38:58.650Z,23.24
2016-12-30T04:39:58.586Z,22.94
2016-12-30T04:40:58.527Z,23.04
2016-12-30T04:41:58.465Z,23.14
2016-12-30T04:42:58.398Z,23.04
2016-12-30T04:43:58.352Z,23.14
2016-12-30T04:44:58.404Z,23.14
2016-12-30T04:45:58.210Z,23.04
2016-12-30T04:46:58.149Z,23.14
2016-12-30T04:47:58.086Z,23.04
2016-12-30T04:48:58.022Z,23.24
2016-12-30T04:49:57.958Z,23.04
2016-12-30T04:50:57.897Z,23.14
2016-12-30T04:51:57.833Z,23.14
2016-12-30T04:52:57.771Z,23.14
2016-12-30T04:53:57.708Z,23.24
2016-12-30T04:54:58.071Z,23.24
2016-12-30T04:55:57.592Z,23.14
2016-12-30T04:56:57.520Z,23.33
2016-12-30T04:57:57.457Z,22.94
2016-12-30T04:58:57.881Z,23.04
2016-12-30T04:59:57.723Z,23.14
2016-12-30T05:00:57.276Z,23.04
2016-12-30T05:01:57.214Z,23.04
2016-12-30T05:02:57.147Z,23.24
2016-12-30T05:03:57.078Z,23.24
2016-12-30T05:04:57.413Z,23.24
2016-12-30T05:05:56.953Z,23.33
2016-12-30T05:06:56.900Z,23.24
2016-12-30T05:07:56.828Z,23.24
2016-12-30T05:08:56.765Z,23.24
2016-12-30T05:09:56.719Z,23.14
2016-12-30T05:10:56.668Z,23.24
2016-12-30T05:11:56.578Z,23.14
2016-12-30T05:12:56.514Z,23.24
2016-12-30T05:13:56.469Z,23.33
2016-12-30T05:14:56.388Z,23.24
2016-12-30T05:15:56.329Z,23.43
2016-12-30T05:16:56.262Z,23.14
2016-12-30T05:17:56.207Z,23.24
2016-12-30T05:18:56.531Z,23.33
2016-12-30T05:19:56.084Z,23.04
2016-12-30T05:20:56.011Z,22.94
2016-12-30T05:21:55.968Z,22.75
2016-12-30T05:22:55.886Z,22.85
2016-12-30T05:23:55.823Z,22.94
2016-12-30T05:24:55.765Z,22.94
2016-12-30T05:25:55.708Z,22.94
2016-12-30T05:26:55.635Z,23.04
2016-12-30T05:27:55.676Z,22.66
2016-12-30T05:28:55.509Z,22.94
2016-12-30T05:29:55.444Z,22.66
2016-12-30T05:30:55.383Z,22.66
2016-12-30T05:31:55.330Z,22.66
2016-12-30T05:32:55.257Z,22.85
2016-12-30T05:33:55.253Z,22.75
2016-12-30T05:34:55.238Z,22.85
2016-12-30T05:35:55.069Z,22.46
2016-12-30T05:36:55.008Z,22.56
2016-12-30T05:37:54.942Z,22.46
2016-12-30T05:38:54.892Z,22.46
2016-12-30T05:39:54.816Z,22.27
2016-12-30T05:40:54.754Z,22.36
2016-12-30T05:41:54.695Z,22.36
2016-12-30T05:42:54.626Z,22.08
2016-12-30T05:43:54.566Z,22.36
2016-12-30T05:44:54.510Z,22.27
2016-12-30T05:45:54.438Z,21.79
2016-12-30T05:46:54.377Z,22.27
2016-12-30T05:47:54.325Z,21.79
2016-12-30T05:48:54.254Z,21.88
2016-12-30T05:49:54.192Z,21.59
2016-12-30T05:50:54.132Z,21.59
2016-12-30T05:51:54.251Z,21.79
2016-12-30T05:52:54.000Z,21.69
2016-12-30T05:53:53.939Z,21.59
2016-12-30T05:54:53.875Z,21.69
2016-12-30T05:55:53.813Z,21.69
2016-12-30T05:56:53.749Z,21.79
2016-12-30T05:57:53.745Z,21.59
2016-12-30T05:58:53.622Z,21.79
2016-12-30T05:59:53.558Z,21.69
2016-12-30T06:00:53.753Z,21.69
2016-12-30T06:01:53.434Z,21.69
2016-12-30T06:02:53.374Z,21.59
2016-12-30T06:03:53.317Z,21.59
2016-12-30T06:04:53.254Z,21.79
2016-12-30T06:05:53.184Z,21.79
2016-12-30T06:06:53.120Z,21.69
2016-12-30T06:07:53.061Z,21.59
2016-12-30T06:08:52.994Z,21.31
2016-12-30T06:09:52.941Z,21.31
2016-12-30T06:10:52.892Z,21.4
2016-12-30T06:11:52.804Z,21.31
2016-12-30T06:12:52.757Z,21.4
2016-12-30T06:13:52.681Z,21.4
2016-12-30T06:14:52.626Z,21.4
2016-12-30T06:15:52.556Z,21.5
2016-12-30T06:16:52.503Z,21.5
2016-12-30T06:17:52.540Z,21.01
2016-12-30T06:18:52.430Z,20.92
2016-12-30T06:19:52.300Z,21.11
2016-12-30T06:20:52.242Z,20.83
2016-12-30T06:21:52.176Z,21.11
2016-12-30T06:22:52.124Z,21.01
2016-12-30T06:23:52.051Z,20.83
2016-12-30T06:24:52.095Z,21.11
2016-12-30T06:25:51.928Z,20.92
2016-12-30T06:26:51.867Z,20.92
2016-12-30T06:27:51.827Z,20.92
2016-12-30T06:28:51.737Z,21.01
2016-12-30T06:29:51.680Z,20.73
2016-12-30T06:30:52.069Z,21.01
2016-12-30T06:31:51.580Z,20.83
2016-12-30T06:32:51.520Z,21.01
2016-12-30T06:33:51.422Z,20.63
2016-12-30T06:34:51.361Z,20.73
2016-12-30T06:35:51.297Z,21.01
2016-12-30T06:36:51.231Z,20.63
2016-12-30T06:37:51.172Z,20.53
2016-12-30T06:38:51.106Z,20.73
2016-12-30T06:39:51.047Z,20.73
2016-12-30T06:40:50.983Z,20.53
2016-12-30T06:41:50.917Z,20.43
2016-12-30T06:42:50.855Z,20.34
2016-12-30T06:43:50.791Z,20.34
2016-12-30T06:44:50.743Z,20.53
2016-12-30T06:45:50.669Z,20.73
2016-12-30T06:46:50.604Z,20.43
2016-12-30T06:47:50.942Z,20.73
2016-12-30T06:48:50.482Z,20.53
2016-12-30T06:49:50.805Z,20.25
2016-12-30T06:50:50.556Z,20.53
2016-12-30T06:51:50.290Z,20.53
2016-12-30T06:52:50.227Z,20.43
2016-12-30T06:53:50.164Z,20.73
2016-12-30T06:54:50.128Z,20.43
2016-12-30T06:55:50.045Z,20.34
2016-12-30T06:56:49.974Z,20.43
2016-12-30T06:57:50.313Z,20.25
2016-12-30T06:58:49.849Z,20.34
2016-12-30T06:59:49.788Z,20.43
2016-12-30T07:00:49.727Z,20.25
2016-12-30T07:01:49.664Z,20.25
2016-12-30T07:02:49.597Z,20.25
2016-12-30T07:03:49.576Z,20.34
2016-12-30T07:04:49.474Z,20.25
2016-12-30T07:05:49.414Z,20.05
2016-12-30T07:06:49.347Z,20.43
2016-12-30T07:07:49.454Z,20.15
2016-12-30T07:08:49.223Z,20.25
2016-12-30T07:09:49.161Z,20.15
2016-12-30T07:10:49.097Z,20.15
2016-12-30T07:11:49.032Z,20.05
2016-12-30T07:12:48.972Z,20.25
2016-12-30T07:13:48.907Z,20.05
2016-12-30T07:14:48.969Z,20.34
2016-12-30T07:15:48.784Z,20.25
2016-12-30T07:16:48.719Z,19.95
2016-12-30T07:17:48.657Z,19.95
2016-12-30T07:18:48.592Z,20.25
2016-12-30T07:19:48.533Z,20.15
2016-12-30T07:20:48.469Z,20.34
2016-12-30T07:21:48.403Z,20.15
2016-12-30T07:22:48.344Z,20.05
2016-12-30T07:23:48.670Z,20.25
2016-12-30T07:24:48.219Z,20.25
2016-12-30T07:25:48.155Z,20.15
2016-12-30T07:26:48.485Z,20.25
2016-12-30T07:27:48.027Z,20.15
2016-12-30T07:28:47.963Z,20.05
2016-12-30T07:29:47.906Z,20.15
2016-12-30T07:30:47.840Z,20.15
2016-12-30T07:31:47.776Z,20.05
2016-12-30T07:32:47.718Z,20.15
2016-12-30T07:33:47.650Z,20.05
2016-12-30T07:34:47.590Z,19.76
2016-12-30T07:35:47.527Z,19.76
2016-12-30T07:36:47.462Z,19.67
2016-12-30T07:37:47.398Z,19.86
2016-12-30T07:38:47.349Z,19.67
2016-12-30T07:39:47.275Z,19.67
2016-12-30T07:40:47.414Z,19.67
2016-12-30T07:41:47.147Z,19.57
2016-12-30T07:42:47.091Z,19.57
2016-12-30T07:43:47.020Z,19.57
2016-12-30T07:44:46.967Z,19.67
2016-12-30T07:45:46.907Z,19.57
2016-12-30T07:46:46.832Z,19.76
2016-12-30T07:47:46.974Z,19.57
2016-12-30T07:48:46.707Z,19.57
2016-12-30T07:49:46.648Z,19.67
2016-12-30T07:50:46.581Z,19.86
2016-12-30T07:51:46.520Z,19.57
2016-12-30T07:52:46.456Z,19.67
2016-12-30T07:53:46.394Z,19.76
2016-12-30T07:54:46.331Z,19.76
2016-12-30T07:55:46.268Z,19.38
2016-12-30T07:56:46.202Z,19.67
2016-12-30T07:57:46.283Z,19.67
2016-12-30T07:58:46.100Z,19.67
2016-12-30T07:59:46.016Z,19.47
2016-12-30T08:00:46.374Z,19.57
2016-12-30T08:01:45.890Z,19.67
2016-12-30T08:02:45.829Z,19.38
2016-12-30T08:03:45.773Z,19.47
2016-12-30T08:04:45.834Z,19.47
2016-12-30T08:06:45.982Z,19.47
2016-12-30T08:07:45.606Z,19.38
2016-12-30T08:08:45.459Z,19.38
2016-12-30T08:09:45.860Z,19.38
2016-12-30T08:10:45.324Z,19.47
2016-12-30T08:11:45.342Z,19.38
2016-12-30T08:12:45.203Z,19.28
2016-12-30T08:13:45.137Z,19.28
2016-12-30T08:14:45.077Z,19.38
2016-12-30T08:15:45.018Z,19.38
2016-12-30T08:16:45.029Z,19.57
2016-12-30T08:17:44.952Z,19.38
2016-12-30T08:18:45.094Z,19.47
2016-12-30T08:19:44.760Z,19.38
2016-12-30T08:20:44.696Z,19.38
2016-12-30T08:21:44.633Z,19.38
2016-12-30T08:22:44.570Z,19.47
2016-12-30T08:23:44.506Z,19.28
2016-12-30T08:24:44.444Z,19.38
2016-12-30T08:25:44.382Z,19.47
2016-12-30T08:26:44.332Z,19.38
2016-12-30T08:27:44.256Z,19.28
2016-12-30T08:28:44.194Z,19.18
2016-12-30T08:29:44.135Z,19.28
2016-12-30T08:30:44.120Z,19.18
2016-12-30T08:31:44.021Z,19.18
2016-12-30T08:32:44.332Z,19.18
2016-12-30T08:33:43.884Z,19.09
2016-12-30T08:34:43.813Z,19.38
2016-12-30T08:35:43.754Z,19.09
2016-12-30T08:36:43.708Z,19.28
2016-12-30T08:37:43.828Z,19.28
2016-12-30T08:38:43.621Z,19.09
2016-12-30T08:39:43.503Z,19.28
2016-12-30T08:40:43.436Z,19.09
2016-12-30T08:41:43.375Z,19.18
2016-12-30T08:42:43.312Z,19.18
2016-12-30T08:43:43.333Z,19.09
2016-12-30T08:44:43.393Z,19.28
2016-12-30T08:45:43.126Z,18.99
2016-12-30T08:46:43.061Z,19.09
2016-12-30T08:47:43.128Z,18.9
2016-12-30T08:48:42.936Z,18.99
2016-12-30T08:49:42.872Z,18.9
2016-12-30T08:50:42.854Z,19.18
2016-12-30T08:51:42.745Z,18.9
2016-12-30T08:52:42.681Z,19.09
2016-12-30T08:53:42.623Z,19.18
2016-12-30T08:54:42.684Z,19.18
2016-12-30T08:55:42.495Z,19.18
2016-12-30T08:56:42.434Z,19.18
2016-12-30T08:57:42.369Z,19.09
2016-12-30T08:58:42.307Z,19.28
2016-12-30T08:59:42.243Z,19.09
2016-12-30T09:00:42.182Z,19.09
2016-12-30T09:01:42.116Z,19.18
2016-12-30T09:02:42.053Z,18.8
2016-12-30T09:03:41.996Z,19.09
2016-12-30T09:04:41.939Z,19.09
2016-12-30T09:05:41.875Z,19.09
2016-12-30T09:06:41.811Z,19.18
2016-12-30T09:07:41.738Z,19.09
2016-12-30T09:08:41.676Z,19.18
2016-12-30T09:09:41.693Z,18.8
2016-12-30T09:10:41.557Z,18.7
2016-12-30T09:11:41.486Z,18.7
2016-12-30T09:12:41.423Z,18.9
2016-12-30T09:13:41.363Z,18.9
2016-12-30T09:14:41.304Z,18.8
2016-12-30T09:15:41.245Z,18.8
2016-12-30T09:16:41.386Z,18.7
2016-12-30T09:17:41.108Z,18.8
2016-12-30T09:18:41.055Z,18.9
2016-12-30T09:19:40.997Z,18.8
2016-12-30T09:20:41.398Z,18.9
2016-12-30T09:21:40.922Z,18.8
2016-12-30T09:22:40.798Z,18.7
2016-12-30T09:23:40.738Z,18.9
2016-12-30T09:24:40.672Z,18.7
2016-12-30T09:25:40.618Z,18.8
2016-12-30T09:26:40.553Z,18.7
2016-12-30T09:27:40.686Z,18.51
2016-12-30T09:28:40.425Z,19.28
2016-12-30T09:29:40.356Z,18.7
2016-12-30T09:30:40.292Z,18.7
2016-12-30T09:31:40.231Z,18.8
2016-12-30T09:32:40.170Z,18.7
2016-12-30T09:33:40.110Z,18.9
2016-12-30T09:34:40.039Z,18.6
2016-12-30T09:35:39.978Z,18.7
2016-12-30T09:36:39.931Z,18.8
2016-12-30T09:37:39.985Z,18.8
2016-12-30T09:38:39.789Z,18.9
2016-12-30T09:39:39.729Z,18.8
2016-12-30T09:40:39.675Z,18.9
2016-12-30T09:41:39.600Z,18.8
2016-12-30T09:42:39.602Z,18.8
2016-12-30T09:43:39.481Z,18.7
2016-12-30T09:44:39.570Z,18.9
2016-12-30T09:45:39.348Z,18.8
2016-12-30T09:46:39.283Z,18.9
2016-12-30T09:47:39.225Z,18.9
2016-12-30T09:48:39.173Z,18.8
2016-12-30T09:49:39.097Z,18.8
2016-12-30T09:50:39.238Z,18.8
2016-12-30T09:51:38.974Z,18.9
2016-12-30T09:52:38.908Z,18.8
2016-12-30T09:53:38.845Z,18.9
2016-12-30T09:54:38.782Z,18.8
2016-12-30T09:55:38.720Z,18.8
2016-12-30T09:56:38.658Z,18.99
2016-12-30T09:57:38.603Z,18.9
2016-12-30T09:58:38.531Z,18.7
2016-12-30T09:59:38.468Z,18.8
2016-12-30T10:00:38.406Z,18.8
2016-12-30T10:01:38.346Z,18.9
2016-12-30T10:02:38.286Z,18.8
2016-12-30T10:03:38.216Z,18.8
2016-12-30T10:04:38.156Z,18.9
2016-12-30T10:05:38.150Z,18.9
2016-12-30T10:06:38.045Z,18.9
2016-12-30T10:07:38.173Z,18.7
2016-12-30T10:08:37.904Z,18.7
2016-12-30T10:09:37.843Z,18.9
2016-12-30T10:10:37.982Z,18.8
2016-12-30T10:11:37.713Z,18.9
2016-12-30T10:12:37.654Z,18.9
2016-12-30T10:13:37.588Z,18.9
2016-12-30T10:14:37.527Z,18.7
2016-12-30T10:15:37.464Z,18.8
2016-12-30T10:16:37.405Z,18.8
2016-12-30T10:17:37.564Z,18.9
2016-12-30T10:18:37.275Z,18.9
2016-12-30T10:19:37.212Z,18.7
2016-12-30T10:20:37.606Z,18.7
2016-12-30T10:21:37.087Z,18.7
2016-12-30T10:22:37.067Z,18.9
2016-12-30T10:23:36.960Z,18.9
2016-12-30T10:24:36.898Z,18.7
2016-12-30T10:25:36.833Z,18.9
2016-12-30T10:26:36.783Z,18.7
2016-12-30T10:27:36.746Z,18.7
2016-12-30T10:28:36.648Z,18.7
2016-12-30T10:29:36.586Z,18.51
2016-12-30T10:30:36.521Z,18.7
2016-12-30T10:31:36.458Z,18.8
2016-12-30T10:32:36.437Z,18.9
2016-12-30T10:33:36.331Z,18.9
2016-12-30T10:34:36.267Z,18.7
2016-12-30T10:35:36.208Z,18.8
2016-12-30T10:36:36.143Z,18.9
2016-12-30T10:37:36.090Z,18.9
2016-12-30T10:38:36.018Z,18.8
2016-12-30T10:39:35.980Z,18.7
2016-12-30T10:40:35.893Z,18.7
2016-12-30T10:41:35.831Z,18.8
2016-12-30T10:42:35.765Z,18.8
2016-12-30T10:43:35.707Z,18.8
2016-12-30T10:44:35.695Z,18.9
2016-12-30T10:45:35.967Z,18.9
2016-12-30T10:46:35.515Z,19.18
2016-12-30T10:47:35.449Z,18.8
2016-12-30T10:48:35.591Z,18.9
2016-12-30T10:49:35.324Z,19.09
2016-12-30T10:50:35.268Z,18.8
2016-12-30T10:51:35.207Z,18.8
2016-12-30T10:52:35.138Z,18.8
2016-12-30T10:53:35.304Z,18.6
2016-12-30T10:54:35.013Z,19.18
2016-12-30T10:55:34.945Z,18.7
2016-12-30T10:56:35.272Z,18.8
2016-12-30T10:57:34.823Z,18.7
2016-12-30T10:58:34.775Z,18.8
2016-12-30T10:59:34.712Z,18.7
2016-12-30T11:00:34.725Z,19.18
2016-12-30T11:01:34.571Z,19.18
2016-12-30T11:02:34.509Z,19.09
2016-12-30T11:03:34.448Z,18.8
2016-12-30T11:04:34.451Z,18.7
2016-12-30T11:05:34.325Z,18.9
2016-12-30T11:06:34.256Z,18.9
2016-12-30T11:07:34.394Z,19.09
2016-12-30T11:08:34.166Z,19.28
2016-12-30T11:09:34.274Z,19.18
2016-12-30T11:10:34.017Z,18.9
2016-12-30T11:11:33.941Z,19.18
2016-12-30T11:12:33.904Z,19.09
2016-12-30T11:13:34.290Z,19.09
2016-12-30T11:14:33.757Z,19.18
2016-12-30T11:15:33.690Z,19.09
2016-12-30T11:16:34.019Z,19.09
2016-12-30T11:17:33.593Z,18.99
2016-12-30T11:18:33.507Z,19.09
2016-12-30T11:19:33.442Z,19.18
2016-12-30T11:20:33.379Z,19.18
2016-12-30T11:21:33.699Z,19.18
2016-12-30T11:22:33.250Z,19.09
2016-12-30T11:23:33.436Z,19.18
2016-12-30T11:24:33.126Z,18.99
2016-12-30T11:25:33.558Z,19.18
2016-12-30T11:26:32.999Z,19.09
2016-12-30T11:27:32.932Z,19.09
2016-12-30T11:28:32.870Z,18.99
2016-12-30T11:29:32.810Z,18.99
2016-12-30T11:30:32.743Z,18.9
2016-12-30T11:31:32.683Z,18.99
2016-12-30T11:32:32.619Z,18.99
2016-12-30T11:33:32.589Z,18.99
2016-12-30T11:34:32.494Z,18.9
2016-12-30T11:35:32.432Z,18.99
2016-12-30T11:36:32.368Z,18.99
2016-12-30T11:37:32.314Z,18.99
2016-12-30T11:38:32.241Z,19.09
2016-12-30T11:39:32.180Z,19.09
2016-12-30T11:40:32.117Z,19.09
2016-12-30T11:41:32.050Z,18.99
2016-12-30T11:42:31.990Z,18.99
2016-12-30T11:43:31.925Z,19.09
2016-12-30T11:44:31.868Z,19.09
2016-12-30T11:45:32.199Z,18.99
2016-12-30T11:46:31.750Z,18.99
2016-12-30T11:47:31.673Z,18.99
2016-12-30T11:48:32.006Z,18.99
2016-12-30T11:49:31.564Z,19.18
2016-12-30T11:50:31.699Z,19.09
2016-12-30T11:51:31.438Z,19.09
2016-12-30T11:52:31.358Z,19.09
2016-12-30T11:53:31.310Z,19.18
2016-12-30T11:54:31.285Z,19.18
2016-12-30T11:55:31.198Z,19.47
2016-12-30T11:56:31.115Z,19.18
2016-12-30T11:57:31.249Z,19.38
2016-12-30T11:58:30.982Z,19.28
2016-12-30T11:59:30.917Z,19.28
2016-12-30T12:00:30.875Z,19.28
2016-12-30T12:01:30.790Z,19.28
2016-12-30T12:02:30.726Z,19.18
2016-12-30T12:03:30.666Z,19.38
2016-12-30T12:04:30.645Z,19.38
2016-12-30T12:05:30.541Z,19.38
2016-12-30T12:06:30.485Z,19.38
2016-12-30T12:07:30.443Z,19.18
2016-12-30T12:08:30.949Z,19.18
2016-12-30T12:09:30.289Z,19.47
2016-12-30T12:10:30.227Z,19.38
2016-12-30T12:11:30.171Z,19.18
2016-12-30T12:12:30.099Z,19.38
2016-12-30T12:13:30.053Z,19.38
2016-12-30T12:14:29.973Z,19.38
2016-12-30T12:15:29.910Z,19.38
2016-12-30T12:16:29.848Z,19.47
2016-12-30T12:17:30.181Z,19.18
2016-12-30T12:18:29.725Z,19.28
2016-12-30T12:19:29.726Z,19.38
2016-12-30T12:20:29.997Z,19.28
2016-12-30T12:21:29.573Z,19.47
2016-12-30T12:22:29.474Z,19.38
2016-12-30T12:23:29.408Z,19.38
2016-12-30T12:24:29.353Z,19.38
2016-12-30T12:25:29.377Z,19.57
2016-12-30T12:26:29.292Z,19.28
2016-12-30T12:27:29.158Z,19.47
2016-12-30T12:28:29.095Z,19.47
2016-12-30T12:29:29.082Z,19.38
2016-12-30T12:30:28.967Z,19.28
2016-12-30T12:31:28.905Z,19.28
2016-12-30T12:32:28.955Z,19.28
2016-12-30T12:33:29.176Z,19.28
2016-12-30T12:34:28.718Z,19.28
2016-12-30T12:35:28.653Z,19.38
2016-12-30T12:36:28.651Z,19.38
2016-12-30T12:37:28.578Z,19.38
2016-12-30T12:38:28.511Z,19.38
2016-12-30T12:39:28.445Z,19.38
2016-12-30T12:40:28.540Z,19.38
2016-12-30T12:41:28.273Z,19.38
2016-12-30T12:42:28.270Z,19.38
2016-12-30T12:43:28.602Z,19.38
2016-12-30T12:44:28.093Z,19.28
2016-12-30T12:45:28.105Z,19.28
2016-12-30T12:46:27.959Z,19.47
2016-12-30T12:47:28.156Z,19.28
2016-12-30T12:48:27.897Z,19.57
2016-12-30T12:49:27.771Z,19.47
2016-12-30T12:50:27.736Z,19.47
2016-12-30T12:51:27.647Z,19.47
2016-12-30T12:52:27.604Z,19.47
2016-12-30T12:53:27.571Z,19.47
2016-12-30T12:54:27.459Z,19.47
2016-12-30T12:55:27.397Z,19.47
2016-12-30T12:56:27.410Z,19.38
2016-12-30T12:57:27.291Z,19.38